Lilac (350, 352) Station Data

Red Flag Warning: No
Fire Weather Zone: 250
SDGE Region: North East
Lat/Lon: 33.277/-117.069

Observations

Time Wind Speed/Gust Temp(F) RH Fuel Moist Fuel Temp(F) Dewpt(F) Tmax(F) Tmin(F) Accum Precip 10-min Precip SL Press(mb)
3/29 8:00am 112 2 G 3 66° 18% - - 21° 66.3° 57° - - -
3/29 7:50am 114 2 G 3 66° 16% - - 18° 66° 57° - - -
3/29 7:40am 103 3 G 4 65° 17% - - 19° 65.4° 57° - - -
3/29 7:30am 36 1 G 2 64° 19% - - 20° 65.3° 57° - - -
3/29 7:20am 126 2 G 4 61° 22% - - 22° 62.7° 57° - - -
3/29 7:10am 76 3 G 5 59° 25% - - 23° 62.7° 57° - - -
3/29 7:00am 41 3 G 5 60° 23% - - 22° 62.7° 57° - - -
3/29 6:50am 132 2 G 4 59° 24% - - 23° 62.7° 57° - - -
3/29 6:40am 121 5 G 6 59° 23% - - 22° 62.7° 57° - - -
3/29 6:30am 115 3 G 4 59° 24% - - 22° 62.7° 57° - - -
3/29 6:20am 133 3 G 5 58° 26% - - 23° 62.7° 57° - - -
3/29 6:10am 45 2 G 5 60° 24% - - 23° 62.7° 57° - - -
3/29 6:00am 109 6 G 9 61° 22% - - 22° 62.7° 57° - - -
3/29 5:50am 107 7 G 8 61° 22% - - 22° 62.7° 57° - - -
3/29 5:40am 77 6 G 9 62° 22% - - 23° 62.7° 57° - - -
3/29 5:30am 87 5 G 7 61° 24% - - 24° 62.6° 57° - - -
3/29 5:20am 78 6 G 8 59° 29% - - 26° 61.9° 57° - - -
3/29 5:10am 81 3 G 6 58° 33% - - 29° 61.9° 57° - - -
3/29 5:00am 106 5 G 7 59° 34% - - 31° 61.9° 57.6° - - -
3/29 4:50am 109 7 G 8 59° 38% - - 33° 61.9° 57.6° - - -
3/29 4:40am 108 7 G 9 58° 35% - - 31° 61.9° 57.6° - - -
3/29 4:30am 108 6 G 8 59° 36% - - 32° 61.9° 57.6° - - -
3/29 4:20am 98 5 G 7 60° 35% - - 32° 61.9° 57.6° - - -
3/29 4:10am 102 3 G 5 60° 35% - - 32° 61.9° 57.6° - - -
3/29 4:00am 106 3 G 4 60° 35% - - 32° 61.9° 57.6° - - -
3/29 3:50am 114 3 G 5 59° 36% - - 32° 61.9° 57.6° - - -
3/29 3:40am 101 3 G 5 59° 36% - - 32° 61.9° 57.6° - - -
3/29 3:30am 79 2 G 3 59° 38% - - 33° 61.9° 57.6° - - -
3/29 3:20am 301 1 G 2 59° 38% - - 33° 61.9° 57.6° - - -
3/29 3:10am 181 1 G 3 58° 39% - - 33° 61.9° 57.6° - - -
3/29 3:00am 114 2 G 3 58° 39% - - 33° 61.9° 57.6° - - -
3/29 2:50am 12 2 G 4 59° 38% - - 34° 61.9° 58.1° - - -
3/29 2:40am 13 2 G 3 59° 39% - - 34° 61.9° 58.1° - - -
3/29 2:30am 23 2 G 3 60° 36% - - 33° 61.9° 58.1° - - -
3/29 2:20am 66 3 G 5 61° 37% - - 34° 61.9° 58.1° - - -
3/29 2:10am 89 4 G 6 60° 39% - - 34° 61.9° 58.1° - - -
3/29 2:00am 97 5 G 6 59° 39% - - 34° 61.9° 58.1° - - -
3/29 1:50am 122 3 G 4 59° 40% - - 34° 61.9° 58.1° - - -
3/29 1:40am 81 2 G 5 59° 40% - - 35° 61.9° 58.2° - - -
3/29 1:30am 18 3 G 5 61° 37% - - 34° 61.9° 58.6° - - -
3/29 1:20am 70 2 G 2 61° 37% - - 34° 61.9° 58.6° - - -
3/29 1:10am 77 4 G 5 60° 38% - - 34° 61.9° 58.6° - - -
3/29 1:00am 79 4 G 6 61° 37% - - 35° 61.9° 58.6° - - -
3/29 12:50am 103 2 G 5 61° 38% - - 35° 61.4° 58.6° - - -
3/29 12:40am 99 3 G 5 60° 39% - - 36° 61.3° 58.6° - - -
3/29 12:30am 73 3 G 5 60° 40% - - 35° 61.3° 58.6° - - -
3/29 12:20am 96 5 G 6 59° 42% - - 36° 61.3° 58.6° - - -
3/29 12:10am 114 4 G 5 60° 41% - - 36° 61.3° 59.7° - - -
3/29 12:00am 95 4 G 5 61° 39% - - 36° 71.2° 46.9° - - -
3/28 11:50pm 105 3 G 4 61° 39% - - 36° 71.2° 46.9° - - -
3/28 11:40pm 114 5 G 7 60° 41% - - 36° 71.2° 46.9° - - -
3/28 11:30pm 121 4 G 5 60° 41% - - 36° 71.2° 46.9° - - -
3/28 11:20pm 137 4 G 6 58° 43% - - 36° 71.2° 46.9° - - -
3/28 11:10pm 152 4 G 6 58° 42% - - 35° 71.2° 46.9° - - -
3/28 11:00pm 134 4 G 6 57° 43% - - 35° 71.2° 46.9° - - -
3/28 10:50pm 125 5 G 6 57° 45% - - 36° 71.2° 46.9° - - -
3/28 10:40pm 125 5 G 7 57° 43% - - 35° 71.2° 46.9° - - -
3/28 10:30pm 109 6 G 8 58° 41% - - 35° 71.2° 46.9° - - -
3/28 10:20pm 109 6 G 8 58° 42% - - 35° 71.2° 46.9° - - -
3/28 10:10pm 108 5 G 6 60° 38% - - 35° 71.2° 46.9° - - -
3/28 10:00pm 108 6 G 7 59° 39% - - 34° 71.2° 46.9° - - -
3/28 9:50pm 111 6 G 8 59° 39% - - 34° 71.2° 46.9° - - -
3/28 9:40pm 120 6 G 7 60° 36% - - 33° 71.2° 46.9° - - -
3/28 9:30pm 122 6 G 7 59° 38% - - 33° 71.2° 46.9° - - -
3/28 9:20pm 106 6 G 7 58° 39% - - 33° 71.2° 46.9° - - -
3/28 9:10pm 110 7 G 9 58° 39% - - 33° 71.2° 46.9° - - -
3/28 9:00pm 125 6 G 8 60° 35% - - 32° 71.2° 46.9° - - -
3/28 8:50pm 119 5 G 6 60° 32% - - 30° 71.2° 46.9° - - -
3/28 8:40pm 135 4 G 6 61° 31% - - 30° 71.2° 46.9° - - -
3/28 8:30pm 159 2 G 3 60° 32% - - 30° 71.2° 46.9° - - -
3/28 8:20pm 187 3 G 4 61° 32% - - 31° 71.2° 46.9° - - -
3/28 8:10pm 208 3 G 5 61° 31% - - 30° 71.2° 46.9° - - -
3/28 8:00pm 175 2 G 4 60° 32% - - 31° 71.2° 46.9° - - -
3/28 7:50pm 166 2 G 3 61° 31% - - 30° 71.2° 46.9° - - -
3/28 7:40pm 161 3 G 3 61° 31% - - 30° 71.2° 46.9° - - -
3/28 7:30pm 179 2 G 4 62° 30% - - 30° 71.2° 46.9° - - -
3/28 7:20pm 213 2 G 4 62° 30% - - 30° 71.2° 46.9° - - -
3/28 7:10pm 192 2 G 4 62° 30% - - 31° 71.2° 46.9° - - -
3/28 7:00pm 226 2 G 3 63° 30% - - 31° 71.2° 46.9° - - -
3/28 6:50pm 205 2 G 4 64° 30% - - 32° 71.2° 46.9° - - -
3/28 6:40pm 263 3 G 5 64° 30% - - 32° 71.2° 46.9° - - -
3/28 6:30pm 255 5 G 9 64° 30% - - 32° 71.2° 46.9° - - -
3/28 6:20pm 240 5 G 8 64° 30% - - 32° 71.2° 46.9° - - -
3/28 6:10pm 245 5 G 7 65° 29% - - 32° 71.2° 46.9° - - -
3/28 6:00pm 234 5 G 8 65° 29% - - 32° 71.2° 46.9° - - -
3/28 5:50pm 258 5 G 8 65° 30% - - 33° 71.2° 46.9° - - -
3/28 5:40pm 285 7 G 9 65° 30% - - 33° 71.2° 46.9° - - -
3/28 5:30pm 280 7 G 11 65° 31% - - 33° 71.2° 46.9° - - -
3/28 5:20pm 285 8 G 13 65° 31% - - 33° 71.2° 46.9° - - -
3/28 5:10pm 275 9 G 15 66° 32% - - 35° 71.2° 46.9° - - -
3/28 5:00pm 258 8 G 13 67° 31% - - 35° 71.2° 46.9° - - -
3/28 4:50pm 251 9 G 13 67° 29% - - 33° 71.2° 46.9° - - -
3/28 4:40pm 260 10 G 16 67° 31% - - 36° 71.2° 46.9° - - -
3/28 4:30pm 264 10 G 14 68° 31% - - 36° 71.2° 46.9° - - -
3/28 4:20pm 270 9 G 14 68° 30% - - 35° 71.2° 46.9° - - -
3/28 4:10pm 265 9 G 14 68° 30% - - 36° 71.2° 46.9° - - -
3/28 4:00pm 263 9 G 13 69° 31% - - 37° 71.2° 46.9° - - -
3/28 3:50pm 263 10 G 15 69° 32% - - 38° 71.2° 46.9° - - -
3/28 3:40pm 259 9 G 12 70° 29% - - 36° 71.2° 46.9° - - -
3/28 3:30pm 271 9 G 13 70° 28% - - 35° 71.2° 46.9° - - -
3/28 3:20pm 257 9 G 14 70° 28% - - 35° 71.2° 46.9° - - -
3/28 3:10pm 248 9 G 13 70° 27% - - 35° 71.2° 46.9° - - -
3/28 3:00pm 268 8 G 13 70° 27% - - 35° 71.2° 46.9° - - -
3/28 2:50pm 279 7 G 14 70° 25% - - 33° 71.2° 46.9° - - -
3/28 2:40pm 269 8 G 14 70° 25% - - 33° 71.2° 46.9° - - -
3/28 2:30pm 257 8 G 15 70° 27% - - 35° 70.9° 46.9° - - -
3/28 2:20pm 289 9 G 13 69° 27% - - 34° 70.9° 46.9° - - -
3/28 2:10pm 257 8 G 14 69° 26% - - 33° 70.9° 46.9° - - -
3/28 2:00pm 275 9 G 14 70° 24% - - 31° 70.9° 46.9° - - -
3/28 1:50pm 265 8 G 13 69° 25% - - 32° 70.9° 46.9° - - -
3/28 1:40pm 261 8 G 12 70° 26% - - 33° 70.9° 46.9° - - -
3/28 1:30pm 279 7 G 12 69° 24% - - 31° 69.8° 46.9° - - -
3/28 1:20pm 274 8 G 14 69° 25% - - 31° 69.8° 46.9° - - -
3/28 1:10pm 297 7 G 12 68° 23% - - 29° 69° 46.9° - - -
3/28 1:00pm 266 7 G 14 68° 21% - - 27° 69° 46.9° - - -
3/28 12:50pm 276 7 G 10 68° 19% - - 25° 68.9° 46.9° - - -
3/28 12:40pm 272 6 G 12 68° 19% - - 25° 68.6° 46.9° - - -
3/28 12:30pm 290 3 G 8 68° 18% - - 23° 68.5° 46.9° - - -
3/28 12:20pm 277 3 G 6 67° 19% - - 24° 67.4° 46.9° - - -
3/28 12:10pm 287 5 G 9 67° 21% - - 25° 67° 46.9° - - -
3/28 12:00pm 277 6 G 13 66° 23% - - 27° 67° 46.9° - - -
3/28 11:50am 294 5 G 11 66° 24% - - 28° 67° 46.9° - - -
3/28 11:40am 307 4 G 10 66° 23% - - 27° 67° 46.9° - - -
3/28 11:30am 276 4 G 8 65° 22% - - 26° 66.4° 46.9° - - -
3/28 11:20am 293 4 G 8 64° 23% - - 26° 65.4° 46.9° - - -
3/28 11:10am 319 4 G 8 65° 25% - - 28° 65.4° 46.9° - - -
3/28 11:00am 4 3 G 8 64° 26% - - 28° 65.1° 46.9° - - -
3/28 10:50am 342 6 G 11 63° 27% - - 29° 64° 46.9° - - -
3/28 10:40am 315 7 G 11 63° 29% - - 30° 63.2° 46.9° - - -
3/28 10:30am 312 7 G 11 62° 31% - - 31° 62.9° 46.9° - - -
3/28 10:20am 327 8 G 12 61° 33% - - 32° 61.7° 46.9° - - -
3/28 10:10am 315 8 G 12 61° 34% - - 32° 61° 46.9° - - -
3/28 10:00am 312 6 G 13 59° 40% - - 35° 60.6° 46.9° - - -
3/28 9:50am 286 4 G 7 59° 45% - - 37° 59° 46.9° - - -
3/28 9:40am 293 4 G 7 57° 47% - - 37° 58.4° 46.9° - - -
3/28 9:30am 305 4 G 6 57° 47% - - 37° 58.4° 46.9° - - -
3/28 9:20am 300 5 G 6 57° 47% - - 37° 58.4° 46.9° - - -
3/28 9:10am 270 3 G 5 57° 51% - - 39° 58.4° 46.9° - - -
3/28 9:00am 262 3 G 4 57° 52% - - 40° 58.4° 46.9° - - -
3/28 8:50am 225 1 G 2 58° 50% - - 39° 58.4° 46.9° - - -
3/28 8:40am 163 2 G 3 57° 51% - - 39° 57.9° 46.9° - - -
3/28 8:30am 121 2 G 4 56° 53% - - 39° 56.5° 46.9° - - -
3/28 8:20am 145 1 G 2 55° 53% - - 38° 56.5° 46.9° - - -
3/28 8:10am 146 2 G 3 53° 56% - - 38° 53.7° 46.9° - - -
3/28 8:00am 127 3 G 5 51° 60% - - 38° 53.7° 46.9° - - -
3/28 7:50am 159 3 G 5 52° 59% - - 38° 53.7° 46.9° - - -
3/28 7:40am 97 2 G 3 52° 56% - - 37° 53.7° 46.9° - - -
3/28 7:30am 49 2 G 4 52° 55% - - 36° 53.7° 46.9° - - -
3/28 7:20am 46 3 G 4 52° 56% - - 37° 53.7° 46.9° - - -
3/28 7:10am 38 3 G 4 52° 58% - - 37° 53.7° 46.9° - - -
3/28 7:00am 40 4 G 5 51° 61% - - 38° 53.7° 46.9° - - -
3/28 6:50am 29 2 G 4 50° 64% - - 39° 53.7° 46.9° - - -
3/28 6:40am 339 2 G 4 51° 62% - - 38° 53.7° 46.9° - - -
3/28 6:30am 14 3 G 5 50° 65% - - 38° 53.7° 46.9° - - -
3/28 6:20am 271 3 G 8 51° 60% - - 38° 53.7° 46.9° - - -
3/28 6:10am 95 4 G 8 50° 67% - - 39° 53.7° 46.9° - - -
3/28 6:00am 146 6 G 8 48° 69% - - 38° 53.7° 46.9° - - -